createdAt,value
2023-08-14T00:00:23.766Z,20.10
2023-08-14T00:01:26.782Z,20.08
2023-08-14T00:02:29.706Z,20.07
2023-08-14T00:03:32.673Z,20.07
2023-08-14T00:04:35.624Z,20.06
2023-08-14T00:05:38.534Z,20.04
2023-08-14T00:06:41.460Z,20.03
2023-08-14T00:07:44.383Z,20.03
2023-08-14T00:08:47.247Z,20.00
2023-08-14T00:09:50.137Z,20.01
2023-08-14T00:10:53.133Z,20.01
2023-08-14T00:11:56.013Z,20.01
2023-08-14T00:12:58.865Z,20.00
2023-08-14T00:14:01.797Z,19.98
2023-08-14T00:15:04.898Z,19.97
2023-08-14T00:16:07.804Z,19.96
2023-08-14T00:17:10.630Z,19.96
2023-08-14T00:18:13.513Z,19.94
2023-08-14T00:19:16.919Z,19.94
2023-08-14T00:20:20.019Z,19.94
2023-08-14T00:21:23.242Z,19.93
2023-08-14T00:22:26.183Z,19.91
2023-08-14T00:23:29.042Z,19.91
2023-08-14T00:24:31.959Z,19.84
2023-08-14T00:25:34.956Z,19.81
2023-08-14T00:26:37.887Z,19.81
2023-08-14T00:27:40.838Z,19.81
2023-08-14T00:28:44.029Z,19.81
2023-08-14T00:29:47.947Z,19.81
2023-08-14T00:30:50.851Z,19.80
2023-08-14T00:31:53.768Z,19.77
2023-08-14T00:32:57.429Z,19.79
2023-08-14T00:34:00.404Z,19.76
2023-08-14T00:35:04.846Z,19.77
2023-08-14T00:36:08.259Z,19.76
2023-08-14T00:37:11.226Z,19.79
2023-08-14T00:38:14.100Z,19.73
2023-08-14T00:39:17.082Z,19.73
2023-08-14T00:40:20.274Z,19.70
2023-08-14T00:41:23.245Z,19.69
2023-08-14T00:42:26.195Z,19.65
2023-08-14T00:43:29.130Z,19.66
2023-08-14T00:44:32.619Z,19.63
2023-08-14T00:45:45.173Z,19.60
2023-08-14T00:46:49.376Z,19.59
2023-08-14T00:47:52.642Z,19.58
2023-08-14T00:48:55.601Z,19.59
2023-08-14T00:49:59.024Z,19.53
2023-08-14T00:51:02.149Z,19.55
2023-08-14T00:52:05.341Z,19.59
2023-08-14T00:53:08.340Z,19.56
2023-08-14T00:54:11.685Z,19.53
2023-08-14T00:55:20.989Z,19.53
2023-08-14T00:56:25.811Z,19.49
2023-08-14T00:57:29.652Z,19.50
2023-08-14T00:58:32.797Z,19.45
2023-08-14T00:59:36.671Z,19.46
2023-08-14T01:00:40.057Z,19.49
2023-08-14T01:01:43.446Z,19.50
2023-08-14T01:02:48.946Z,19.49
2023-08-14T01:03:51.943Z,19.48
2023-08-14T01:04:54.902Z,19.46
2023-08-14T01:05:58.179Z,19.49
2023-08-14T01:07:03.538Z,19.49
2023-08-14T01:08:07.780Z,19.46
2023-08-14T01:09:12.258Z,19.49
2023-08-14T01:10:15.328Z,19.48
2023-08-14T01:11:46.507Z,19.43
2023-08-14T01:13:49.651Z,19.38
2023-08-14T01:15:00.239Z,19.33
2023-08-14T01:16:19.832Z,19.36
2023-08-14T01:17:25.013Z,19.35
2023-08-14T01:18:31.391Z,19.36
2023-08-14T01:19:45.021Z,19.32
2023-08-14T01:21:06.688Z,19.32
2023-08-14T01:22:13.129Z,19.31
2023-08-14T01:23:18.780Z,19.26
2023-08-14T01:24:27.255Z,19.25
2023-08-14T01:25:35.551Z,19.26
2023-08-14T01:26:38.901Z,19.23
2023-08-14T01:27:42.481Z,19.21
2023-08-14T01:28:45.829Z,19.22
2023-08-14T01:30:02.272Z,19.22
2023-08-14T01:31:05.369Z,19.21
2023-08-14T01:32:08.314Z,19.21
2023-08-14T01:33:11.266Z,19.18
2023-08-14T01:34:15.622Z,19.15
2023-08-14T01:35:23.670Z,19.16
2023-08-14T01:36:36.688Z,19.15
2023-08-14T01:37:42.282Z,19.11
2023-08-14T01:38:57.339Z,19.10
2023-08-14T01:40:48.844Z,19.07
2023-08-14T01:42:18.066Z,19.04
2023-08-14T01:43:27.258Z,19.04
2023-08-14T01:44:33.857Z,19.04
2023-08-14T01:45:38.096Z,19.02
2023-08-14T01:46:45.367Z,19.02
2023-08-14T01:47:51.347Z,19.00
2023-08-14T01:48:56.171Z,18.97
2023-08-14T01:50:00.757Z,18.94
2023-08-14T01:51:05.183Z,18.84
2023-08-14T01:52:08.958Z,18.83
2023-08-14T01:53:12.455Z,18.87
2023-08-14T01:54:15.303Z,18.87
2023-08-14T01:55:18.477Z,18.85
2023-08-14T01:56:21.461Z,18.83
2023-08-14T01:57:24.291Z,18.80
2023-08-14T01:58:27.250Z,18.81
2023-08-14T01:59:42.964Z,18.78
2023-08-14T02:00:45.827Z,18.81
2023-08-14T02:01:48.716Z,18.81
2023-08-14T02:02:52.028Z,18.80
2023-08-14T02:03:55.069Z,18.81
2023-08-14T02:04:58.023Z,18.80
2023-08-14T02:06:00.945Z,18.80
2023-08-14T02:07:04.202Z,18.80
2023-08-14T02:08:07.550Z,18.80
2023-08-14T02:09:10.504Z,18.77
2023-08-14T02:10:13.672Z,18.78
2023-08-14T02:11:16.569Z,18.78
2023-08-14T02:12:19.686Z,18.77
2023-08-14T02:13:23.147Z,18.75
2023-08-14T02:14:26.084Z,18.77
2023-08-14T02:15:28.987Z,18.77
2023-08-14T02:16:31.985Z,18.74
2023-08-14T02:17:34.939Z,18.74
2023-08-14T02:18:37.886Z,18.74
2023-08-14T02:19:40.755Z,18.74
2023-08-14T02:20:48.180Z,18.73
2023-08-14T02:21:51.686Z,18.68
2023-08-14T02:22:54.604Z,18.70
2023-08-14T02:23:57.459Z,18.70
2023-08-14T02:25:00.376Z,18.68
2023-08-14T02:26:03.228Z,18.68
2023-08-14T02:27:06.184Z,18.68
2023-08-14T02:28:09.066Z,18.68
2023-08-14T02:29:12.086Z,18.64
2023-08-14T02:30:15.941Z,18.64
2023-08-14T02:31:18.911Z,18.61
2023-08-14T02:32:22.244Z,18.61
2023-08-14T02:33:25.171Z,18.60
2023-08-14T02:34:58.442Z,18.56
2023-08-14T02:36:01.393Z,18.50
2023-08-14T02:37:04.435Z,18.53
2023-08-14T02:38:08.389Z,18.47
2023-08-14T02:39:11.288Z,18.44
2023-08-14T02:40:14.267Z,18.42
2023-08-14T02:41:17.213Z,18.42
2023-08-14T02:42:22.570Z,18.42
2023-08-14T02:43:25.617Z,18.36
2023-08-14T02:44:28.587Z,18.33
2023-08-14T02:45:32.048Z,18.37
2023-08-14T02:46:35.128Z,18.39
2023-08-14T02:47:38.211Z,18.40
2023-08-14T02:48:41.418Z,18.40
2023-08-14T02:49:44.385Z,18.36
2023-08-14T02:50:48.154Z,18.34
2023-08-14T02:51:51.042Z,18.34
2023-08-14T02:52:53.967Z,18.34
2023-08-14T02:53:56.840Z,18.34
2023-08-14T02:54:59.903Z,18.34
2023-08-14T02:56:02.740Z,18.37
2023-08-14T02:57:05.667Z,18.36
2023-08-14T02:58:08.560Z,18.39
2023-08-14T02:59:11.425Z,18.37
2023-08-14T03:00:14.761Z,18.36
2023-08-14T03:01:17.716Z,18.37
2023-08-14T03:02:20.901Z,18.36
2023-08-14T03:03:24.216Z,18.36
2023-08-14T03:04:27.116Z,18.34
2023-08-14T03:05:29.920Z,18.33
2023-08-14T03:06:33.992Z,18.32
2023-08-14T03:07:36.940Z,18.33
2023-08-14T03:08:40.290Z,18.34
2023-08-14T03:09:43.405Z,18.32
2023-08-14T03:10:46.470Z,18.34
2023-08-14T03:11:49.297Z,18.29
2023-08-14T03:12:52.208Z,18.28
2023-08-14T03:13:55.965Z,18.32
2023-08-14T03:14:58.848Z,18.28
2023-08-14T03:16:01.731Z,18.22
2023-08-14T03:17:04.664Z,18.22
2023-08-14T03:18:07.700Z,18.23
2023-08-14T03:19:10.641Z,18.19
2023-08-14T03:20:14.632Z,18.23
2023-08-14T03:21:17.508Z,18.15
2023-08-14T03:22:20.487Z,18.13
2023-08-14T03:23:23.679Z,18.10
2023-08-14T03:24:26.507Z,18.08
2023-08-14T03:25:29.374Z,18.09
2023-08-14T03:26:32.226Z,18.06
2023-08-14T03:27:35.350Z,17.99
2023-08-14T03:28:38.244Z,17.98
2023-08-14T03:29:41.105Z,18.01
2023-08-14T03:30:44.926Z,17.92
2023-08-14T03:31:48.070Z,17.86
2023-08-14T03:32:50.962Z,17.81
2023-08-14T03:33:53.895Z,17.85
2023-08-14T03:34:56.708Z,17.82
2023-08-14T03:35:59.589Z,17.81
2023-08-14T03:37:02.445Z,17.81
2023-08-14T03:38:05.624Z,17.84
2023-08-14T03:39:08.536Z,17.85
2023-08-14T03:40:11.776Z,17.81
2023-08-14T03:41:15.488Z,17.86
2023-08-14T03:42:18.631Z,17.86
2023-08-14T03:43:21.675Z,17.86
2023-08-14T03:44:24.849Z,17.84
2023-08-14T03:45:28.039Z,17.84
2023-08-14T03:46:30.911Z,17.79
2023-08-14T03:47:33.947Z,17.79
2023-08-14T03:48:36.804Z,17.82
2023-08-14T03:49:39.700Z,17.81
2023-08-14T03:50:42.646Z,17.82
2023-08-14T03:51:48.109Z,17.84
2023-08-14T03:52:51.016Z,17.84
2023-08-14T03:53:53.887Z,17.88
2023-08-14T03:54:56.831Z,17.85
2023-08-14T03:55:59.900Z,17.81
2023-08-14T03:57:02.802Z,17.82
2023-08-14T03:58:05.779Z,17.82
2023-08-14T03:59:08.617Z,17.88
2023-08-14T04:00:11.895Z,17.86
2023-08-14T04:01:14.856Z,17.89
2023-08-14T04:02:18.071Z,17.89
2023-08-14T04:03:21.310Z,17.91
2023-08-14T04:04:24.195Z,17.89
2023-08-14T04:05:27.114Z,17.88
2023-08-14T04:06:30.083Z,17.86
2023-08-14T04:07:33.244Z,17.81
2023-08-14T04:08:36.336Z,17.81
2023-08-14T04:09:39.234Z,17.81
2023-08-14T04:10:42.263Z,17.84
2023-08-14T04:11:45.233Z,17.81
2023-08-14T04:12:48.085Z,17.79
2023-08-14T04:13:51.077Z,17.79
2023-08-14T04:14:54.194Z,17.82
2023-08-14T04:16:02.952Z,17.84
2023-08-14T04:17:06.122Z,17.81
2023-08-14T04:18:09.360Z,17.81
2023-08-14T04:19:17.745Z,17.81
2023-08-14T04:20:20.791Z,17.81
2023-08-14T04:21:23.684Z,17.79
2023-08-14T04:22:26.892Z,17.79
2023-08-14T04:23:31.082Z,17.82
2023-08-14T04:24:33.965Z,17.84
2023-08-14T04:25:36.944Z,17.82
2023-08-14T04:26:40.505Z,17.85
2023-08-14T04:27:43.418Z,17.85
2023-08-14T04:28:46.323Z,17.88
2023-08-14T04:29:49.195Z,17.88
2023-08-14T04:30:52.038Z,17.89
2023-08-14T04:31:55.092Z,17.91
2023-08-14T04:32:58.042Z,17.92
2023-08-14T04:34:00.938Z,17.89
2023-08-14T04:35:03.759Z,17.92
2023-08-14T04:36:07.434Z,17.92
2023-08-14T04:37:10.459Z,17.94
2023-08-14T04:38:13.572Z,17.91
2023-08-14T04:39:17.553Z,17.96
2023-08-14T04:40:20.547Z,17.94
2023-08-14T04:41:23.487Z,17.95
2023-08-14T04:42:26.460Z,17.98
2023-08-14T04:43:33.882Z,17.96
2023-08-14T04:44:36.767Z,17.94
2023-08-14T04:45:39.725Z,17.95
2023-08-14T04:46:57.677Z,17.95
2023-08-14T04:48:02.297Z,17.96
2023-08-14T04:49:06.119Z,17.94
2023-08-14T04:50:09.481Z,17.96
2023-08-14T04:51:13.200Z,17.98
2023-08-14T04:52:16.847Z,18.01
2023-08-14T04:56:06.710Z,18.01
2023-08-14T04:57:09.616Z,18.04
2023-08-14T04:58:12.608Z,18.09
2023-08-14T04:59:15.519Z,18.08
2023-08-14T05:00:19.269Z,18.10
2023-08-14T05:01:22.415Z,18.13
2023-08-14T05:02:25.452Z,18.21
2023-08-14T05:03:28.304Z,18.23
2023-08-14T05:04:31.160Z,18.23
2023-08-14T05:05:33.993Z,18.28
2023-08-14T05:06:37.037Z,18.33
2023-08-14T05:07:39.980Z,18.37
2023-08-14T05:08:42.879Z,18.42
2023-08-14T05:09:45.776Z,18.44
2023-08-14T05:10:55.222Z,18.46
2023-08-14T05:12:00.443Z,18.50
2023-08-14T05:13:08.284Z,18.53
2023-08-14T05:14:11.163Z,18.60
2023-08-14T05:15:14.244Z,18.64
2023-08-14T05:16:17.093Z,18.67
2023-08-14T05:17:20.056Z,18.73
2023-08-14T05:18:22.951Z,18.77
2023-08-14T05:19:25.968Z,18.78
2023-08-14T05:20:28.868Z,18.81
2023-08-14T05:21:31.895Z,18.84
2023-08-14T05:22:34.831Z,18.88
2023-08-14T05:23:37.726Z,18.91
2023-08-14T05:24:40.603Z,18.95
2023-08-14T05:25:44.595Z,18.97
2023-08-14T05:26:47.472Z,18.98
2023-08-14T05:27:51.045Z,19.01
2023-08-14T05:28:54.261Z,19.02
2023-08-14T05:29:57.293Z,19.04
2023-08-14T05:31:00.194Z,19.05
2023-08-14T05:32:03.148Z,19.05
2023-08-14T05:33:06.445Z,19.05
2023-08-14T05:34:09.504Z,19.11
2023-08-14T05:35:12.366Z,19.14
2023-08-14T05:36:15.265Z,19.16
2023-08-14T05:37:18.177Z,19.19
2023-08-14T05:38:21.135Z,19.22
2023-08-14T05:39:24.012Z,19.28
2023-08-14T05:40:29.766Z,19.26
2023-08-14T05:41:32.669Z,19.31
2023-08-14T05:42:35.580Z,19.38
2023-08-14T05:43:38.517Z,19.38
2023-08-14T05:44:41.405Z,19.41
2023-08-14T05:45:45.989Z,19.38
2023-08-14T05:46:49.952Z,19.43
2023-08-14T05:47:53.068Z,19.42
2023-08-14T05:48:56.103Z,19.48
2023-08-14T05:49:59.032Z,19.53
2023-08-14T05:51:02.062Z,19.59
2023-08-14T05:52:05.077Z,19.67
2023-08-14T05:53:09.042Z,19.69
2023-08-14T05:54:11.919Z,19.70
2023-08-14T05:55:15.067Z,19.76
2023-08-14T05:56:18.019Z,19.80
2023-08-14T05:57:20.991Z,19.83
2023-08-14T05:58:23.956Z,19.89
2023-08-14T05:59:27.053Z,19.93
2023-08-14T06:00:30.030Z,19.97
2023-08-14T06:01:32.989Z,20.00
2023-08-14T06:02:35.961Z,20.03
2023-08-14T06:03:45.008Z,20.07
2023-08-14T06:04:48.529Z,20.11
2023-08-14T06:05:51.462Z,20.18
2023-08-14T06:06:55.797Z,20.21
2023-08-14T06:07:59.006Z,20.25
2023-08-14T06:09:02.925Z,20.32
2023-08-14T06:10:07.720Z,20.38
2023-08-14T06:11:10.682Z,20.38
2023-08-14T06:12:13.588Z,20.41
2023-08-14T06:13:17.266Z,20.48
2023-08-14T06:14:20.310Z,20.51
2023-08-14T06:15:23.384Z,20.55
2023-08-14T06:16:26.338Z,20.58
2023-08-14T06:17:32.648Z,20.62
2023-08-14T06:18:35.786Z,20.66
2023-08-14T06:19:38.640Z,20.75
2023-08-14T06:20:41.567Z,20.78
2023-08-14T06:21:44.558Z,20.85
2023-08-14T06:22:51.535Z,20.92
2023-08-14T06:23:54.410Z,20.95
2023-08-14T06:24:57.347Z,21.02
2023-08-14T06:26:00.672Z,21.08
2023-08-14T06:27:03.563Z,21.08
2023-08-14T06:28:06.809Z,21.16
2023-08-14T06:29:10.096Z,21.20
2023-08-14T06:30:13.664Z,21.24
2023-08-14T06:31:16.636Z,21.33
2023-08-14T06:32:19.853Z,21.38
2023-08-14T06:33:23.144Z,21.41
2023-08-14T06:34:26.818Z,21.48
2023-08-14T06:35:29.817Z,21.57
2023-08-14T06:36:32.690Z,21.66
2023-08-14T06:37:36.353Z,21.72
2023-08-14T06:38:39.174Z,21.79
2023-08-14T06:39:42.078Z,21.85
2023-08-14T06:40:44.991Z,21.89
2023-08-14T06:41:48.220Z,21.98
2023-08-14T06:42:51.149Z,22.02
2023-08-14T06:43:54.050Z,22.12
2023-08-14T06:44:56.962Z,22.17
2023-08-14T06:45:59.925Z,22.23
2023-08-14T06:47:03.609Z,22.30
2023-08-14T06:48:07.004Z,22.42
2023-08-14T06:49:10.088Z,22.50
2023-08-14T06:50:14.885Z,22.54
2023-08-14T06:51:17.811Z,22.61
2023-08-14T06:52:21.288Z,22.72
2023-08-14T06:53:24.406Z,22.78
2023-08-14T06:54:27.398Z,22.86
2023-08-14T06:55:30.298Z,22.91
2023-08-14T06:56:33.372Z,22.97
2023-08-14T06:57:36.771Z,23.07
2023-08-14T06:58:39.603Z,23.11
2023-08-14T06:59:43.854Z,23.15
2023-08-14T07:00:50.756Z,23.23
2023-08-14T07:01:53.694Z,23.32
2023-08-14T07:02:56.705Z,23.37
2023-08-14T07:03:59.649Z,23.45
2023-08-14T07:05:02.574Z,23.49
2023-08-14T07:06:05.859Z,23.56
2023-08-14T07:07:08.757Z,23.65
2023-08-14T07:08:11.752Z,23.70
2023-08-14T07:09:18.720Z,23.77
2023-08-14T07:10:21.670Z,23.88
2023-08-14T07:11:24.617Z,23.96
2023-08-14T07:13:31.882Z,24.13
2023-08-14T07:14:35.502Z,24.22
2023-08-14T07:15:41.074Z,24.28
2023-08-14T07:16:44.573Z,24.41
2023-08-14T07:17:47.488Z,24.51
2023-08-14T07:18:50.409Z,24.62
2023-08-14T07:19:53.223Z,24.76
2023-08-14T07:20:57.043Z,24.87
2023-08-14T07:22:00.008Z,24.97
2023-08-14T07:23:02.886Z,25.07
2023-08-14T07:24:06.450Z,25.16
2023-08-14T07:25:09.982Z,25.23
2023-08-14T07:26:15.796Z,25.27
2023-08-14T07:27:20.680Z,25.40
2023-08-14T07:28:24.649Z,25.48
2023-08-14T07:29:27.586Z,25.58
2023-08-14T07:30:30.469Z,25.64
2023-08-14T07:31:33.353Z,25.75
2023-08-14T07:32:36.269Z,25.84
2023-08-14T07:33:39.278Z,25.91
2023-08-14T07:34:42.161Z,25.98
2023-08-14T07:35:45.283Z,26.05
2023-08-14T07:36:48.163Z,26.10
2023-08-14T07:37:51.115Z,26.18
2023-08-14T07:38:54.007Z,26.25
2023-08-14T07:39:56.886Z,26.30
2023-08-14T07:40:59.816Z,26.35
2023-08-14T07:42:02.658Z,26.43
2023-08-14T07:43:07.698Z,26.47
2023-08-14T07:44:11.238Z,26.57
2023-08-14T07:45:14.193Z,26.61
2023-08-14T07:46:17.160Z,26.64
2023-08-14T07:47:20.049Z,26.73
2023-08-14T07:48:23.150Z,26.81
2023-08-14T07:49:26.100Z,26.84
2023-08-14T07:50:29.053Z,26.90
2023-08-14T07:51:31.949Z,26.94
2023-08-14T07:52:36.941Z,26.97
2023-08-14T07:53:39.934Z,26.99
2023-08-14T07:54:42.814Z,27.08
2023-08-14T07:55:45.719Z,27.11
2023-08-14T07:56:50.964Z,27.12
2023-08-14T07:57:54.361Z,27.16
2023-08-14T07:58:57.185Z,27.22
2023-08-14T08:00:00.048Z,27.26
2023-08-14T08:01:03.144Z,27.34
2023-08-14T08:02:06.828Z,27.42
2023-08-14T08:03:09.971Z,27.42
2023-08-14T08:04:26.581Z,27.46
2023-08-14T08:05:29.818Z,27.45
2023-08-14T08:06:43.411Z,27.52
2023-08-14T08:07:46.761Z,27.57
2023-08-14T08:08:50.446Z,27.60
2023-08-14T08:09:54.719Z,27.69
2023-08-14T08:10:58.828Z,27.76
2023-08-14T08:12:01.855Z,27.77
2023-08-14T08:13:05.356Z,27.80
2023-08-14T08:14:09.124Z,27.83
2023-08-14T08:15:12.531Z,27.90
2023-08-14T08:16:15.703Z,27.93
2023-08-14T08:17:19.577Z,27.93
2023-08-14T08:18:22.638Z,27.98
2023-08-14T08:19:25.549Z,28.03
2023-08-14T08:20:29.188Z,28.03
2023-08-14T08:21:32.585Z,28.07
2023-08-14T08:22:35.954Z,28.10
2023-08-14T08:23:38.842Z,28.13
2023-08-14T08:24:41.734Z,28.10
2023-08-14T08:25:44.562Z,28.18
2023-08-14T08:26:47.869Z,28.18
2023-08-14T08:27:50.715Z,28.27
2023-08-14T08:28:54.117Z,28.28
2023-08-14T08:29:56.947Z,28.34
2023-08-14T08:31:01.001Z,28.37
2023-08-14T08:32:03.831Z,28.37
2023-08-14T08:33:06.747Z,28.38
2023-08-14T08:34:09.736Z,28.40
2023-08-14T08:35:12.719Z,28.38
2023-08-14T08:36:15.764Z,28.42
2023-08-14T08:37:21.584Z,28.41
2023-08-14T08:38:24.469Z,28.42
2023-08-14T08:39:27.425Z,28.45
2023-08-14T08:40:32.041Z,28.51
2023-08-14T08:41:38.606Z,28.58
2023-08-14T08:42:42.480Z,28.63
2023-08-14T08:43:45.695Z,28.71
2023-08-14T08:44:49.254Z,28.75
2023-08-14T08:45:53.909Z,28.80
2023-08-14T08:47:10.774Z,28.82
2023-08-14T08:48:16.182Z,28.86
2023-08-14T08:49:19.469Z,28.93
2023-08-14T08:50:22.555Z,28.96
2023-08-14T08:51:26.601Z,28.99
2023-08-14T08:52:30.174Z,28.98
2023-08-14T08:53:33.133Z,28.96
2023-08-14T08:54:36.832Z,28.99
2023-08-14T08:55:40.199Z,29.02
2023-08-14T08:56:44.063Z,29.02
2023-08-14T08:57:47.172Z,29.03
2023-08-14T08:58:51.145Z,29.06
2023-08-14T08:59:54.816Z,29.06
2023-08-14T09:00:57.873Z,29.10
2023-08-14T09:02:00.774Z,29.14
2023-08-14T09:03:03.901Z,29.23
2023-08-14T09:04:07.366Z,29.27
2023-08-14T09:05:10.430Z,29.30
2023-08-14T09:06:13.781Z,29.37
2023-08-14T09:07:17.500Z,29.41
2023-08-14T09:08:20.584Z,29.46
2023-08-14T09:09:24.524Z,29.50
2023-08-14T09:10:27.439Z,29.55
2023-08-14T09:11:31.956Z,29.58
2023-08-14T09:12:34.900Z,29.61
2023-08-14T09:13:37.775Z,29.64
2023-08-14T09:14:47.500Z,29.74
2023-08-14T09:15:50.531Z,29.75
2023-08-14T09:16:56.329Z,29.79
2023-08-14T09:17:59.268Z,29.82
2023-08-14T09:19:02.921Z,29.91
2023-08-14T09:20:12.617Z,29.95
2023-08-14T09:21:22.428Z,29.99
2023-08-14T09:22:29.147Z,29.99
2023-08-14T09:23:34.354Z,29.99
2023-08-14T09:24:38.485Z,30.02
2023-08-14T09:25:48.498Z,30.08
2023-08-14T09:26:51.559Z,30.12
2023-08-14T09:27:57.545Z,30.13
2023-08-14T09:29:01.070Z,30.15
2023-08-14T09:30:04.136Z,30.19
2023-08-14T09:31:11.242Z,30.26
2023-08-14T09:32:14.163Z,30.29
2023-08-14T09:33:17.105Z,30.29
2023-08-14T09:34:20.761Z,30.35
2023-08-14T09:35:23.749Z,30.35
2023-08-14T09:36:35.691Z,30.39
2023-08-14T09:37:38.601Z,30.40
2023-08-14T09:38:42.367Z,30.44
2023-08-14T09:39:45.273Z,30.46
2023-08-14T09:40:48.132Z,30.47
2023-08-14T09:41:51.096Z,30.52
2023-08-14T09:42:58.092Z,30.55
2023-08-14T09:44:04.177Z,30.55
2023-08-14T09:45:07.882Z,30.57
2023-08-14T09:46:14.546Z,30.60
2023-08-14T09:47:18.167Z,30.64
2023-08-14T09:48:21.642Z,30.68
2023-08-14T09:49:24.700Z,30.71
2023-08-14T09:50:30.818Z,30.76
2023-08-14T09:51:34.399Z,30.80
2023-08-14T09:52:37.280Z,30.85
2023-08-14T09:53:47.465Z,30.88
2023-08-14T09:54:51.931Z,30.88
2023-08-14T09:55:55.989Z,30.94
2023-08-14T09:57:01.899Z,30.95
2023-08-14T09:58:05.058Z,30.99
2023-08-14T09:59:09.342Z,30.99
2023-08-14T10:00:14.904Z,31.04
2023-08-14T10:01:19.982Z,31.08
2023-08-14T10:02:26.993Z,31.11
2023-08-14T10:03:30.488Z,31.18
2023-08-14T10:04:33.636Z,31.25
2023-08-14T10:05:37.156Z,31.28
2023-08-14T10:06:40.216Z,31.29
2023-08-14T10:07:44.749Z,31.26
2023-08-14T10:08:49.370Z,31.25
2023-08-14T10:09:54.642Z,31.26
2023-08-14T10:11:17.345Z,31.26
2023-08-14T10:12:52.257Z,31.26
2023-08-14T10:13:59.812Z,31.25
2023-08-14T10:15:10.604Z,31.26
2023-08-14T10:16:17.461Z,31.29
2023-08-14T10:17:31.805Z,31.31
2023-08-14T10:18:38.465Z,31.31
2023-08-14T10:19:43.201Z,31.36
2023-08-14T10:20:49.256Z,31.39
2023-08-14T10:21:55.412Z,31.41
2023-08-14T10:22:59.782Z,31.43
2023-08-14T10:24:04.972Z,31.46
2023-08-14T10:25:09.562Z,31.53
2023-08-14T10:26:12.725Z,31.58
2023-08-14T10:27:15.767Z,31.53
2023-08-14T10:28:20.802Z,31.62
2023-08-14T10:29:24.897Z,31.62
2023-08-14T10:30:28.541Z,31.67
2023-08-14T10:31:33.947Z,31.69
2023-08-14T10:32:37.721Z,31.72
2023-08-14T10:33:42.342Z,31.74
2023-08-14T10:34:45.749Z,31.72
2023-08-14T10:35:57.663Z,31.77
2023-08-14T10:37:00.586Z,31.80
2023-08-14T10:38:10.203Z,31.86
2023-08-14T10:40:25.191Z,31.84
2023-08-14T10:41:36.342Z,31.89
2023-08-14T10:42:39.198Z,31.97
2023-08-14T10:43:42.254Z,32.00
2023-08-14T10:44:46.407Z,32.07
2023-08-14T10:45:53.342Z,32.10
2023-08-14T10:47:06.431Z,32.21
2023-08-14T10:48:12.745Z,32.23
2023-08-14T10:49:16.288Z,32.28
2023-08-14T10:50:25.376Z,32.30
2023-08-14T10:51:35.764Z,32.27
2023-08-14T10:52:38.836Z,32.28
2023-08-14T10:53:44.631Z,32.27
2023-08-14T10:54:53.252Z,32.30
2023-08-14T10:55:56.241Z,32.31
2023-08-14T10:57:15.969Z,32.30
2023-08-14T10:58:30.961Z,32.32
2023-08-14T10:59:36.721Z,32.37
2023-08-14T11:00:46.891Z,32.44
2023-08-14T11:02:05.510Z,32.44
2023-08-14T11:03:10.405Z,32.51
2023-08-14T11:04:13.357Z,32.45
2023-08-14T11:05:19.357Z,32.45
2023-08-14T11:06:31.411Z,32.40
2023-08-14T11:07:36.554Z,32.41
2023-08-14T11:08:39.431Z,32.44
2023-08-14T11:09:45.577Z,32.42
2023-08-14T11:10:51.494Z,32.34
2023-08-14T11:11:57.984Z,32.34
2023-08-14T11:13:01.373Z,32.35
2023-08-14T11:14:04.318Z,32.34
2023-08-14T11:15:08.486Z,32.38
2023-08-14T11:16:12.171Z,32.35
2023-08-14T11:17:15.014Z,32.35
2023-08-14T11:18:18.320Z,32.35
2023-08-14T11:19:23.929Z,32.40
2023-08-14T11:20:32.366Z,32.40
2023-08-14T11:21:38.871Z,32.42
2023-08-14T11:22:46.457Z,32.45
2023-08-14T11:23:49.333Z,32.47
2023-08-14T11:24:52.725Z,32.48
2023-08-14T11:25:57.612Z,32.52
2023-08-14T11:27:04.301Z,32.54
2023-08-14T11:28:07.461Z,32.59
2023-08-14T11:29:10.277Z,32.58
2023-08-14T11:30:15.388Z,32.45
2023-08-14T11:31:27.662Z,32.48
2023-08-14T11:32:37.306Z,32.49
2023-08-14T11:33:40.199Z,32.54
2023-08-14T11:34:43.195Z,32.54
2023-08-14T11:35:46.971Z,32.58
2023-08-14T11:38:08.242Z,32.59
2023-08-14T11:39:12.987Z,32.61
2023-08-14T11:40:19.700Z,32.64
2023-08-14T11:42:29.095Z,32.64
2023-08-14T11:43:31.970Z,32.68
2023-08-14T11:44:36.276Z,32.74
2023-08-14T11:45:39.968Z,32.78
2023-08-14T11:46:43.147Z,32.76
2023-08-14T11:47:52.598Z,32.75
2023-08-14T11:48:55.616Z,32.79
2023-08-14T11:49:59.356Z,32.79
2023-08-14T11:51:02.299Z,32.85
2023-08-14T11:52:06.322Z,32.88
2023-08-14T11:53:12.697Z,32.86
2023-08-14T11:54:16.589Z,32.85
2023-08-14T11:55:19.797Z,32.82
2023-08-14T11:56:22.990Z,32.80
2023-08-14T11:57:29.873Z,32.79
2023-08-14T11:58:33.734Z,32.78
2023-08-14T11:59:37.258Z,32.78
2023-08-14T12:00:40.302Z,32.85
2023-08-14T12:01:43.694Z,32.90
2023-08-14T12:02:46.612Z,32.82
2023-08-14T12:03:49.785Z,32.82
2023-08-14T12:04:59.742Z,32.85
2023-08-14T12:06:05.356Z,32.85
2023-08-14T12:07:11.388Z,32.88
2023-08-14T12:08:14.975Z,32.86
2023-08-14T12:09:17.988Z,32.96
2023-08-14T12:10:20.954Z,32.99
2023-08-14T12:11:24.066Z,33.02
2023-08-14T12:12:28.111Z,33.05
2023-08-14T12:13:35.080Z,33.07
2023-08-14T12:14:45.310Z,33.15
2023-08-14T12:15:51.340Z,33.16
2023-08-14T12:16:57.344Z,33.17
2023-08-14T12:18:01.894Z,33.22
2023-08-14T12:19:08.909Z,33.22
2023-08-14T12:20:12.898Z,33.23
2023-08-14T12:21:15.971Z,33.20
2023-08-14T12:22:25.096Z,33.19
2023-08-14T12:23:28.126Z,33.16
2023-08-14T12:24:41.605Z,33.16
2023-08-14T12:25:44.770Z,33.17
2023-08-14T12:26:47.788Z,33.22
2023-08-14T12:27:50.748Z,33.23
2023-08-14T12:28:54.070Z,33.27
2023-08-14T12:29:58.450Z,33.25
2023-08-14T12:31:01.404Z,33.22
2023-08-14T12:32:05.196Z,33.26
2023-08-14T12:33:08.266Z,33.29
2023-08-14T12:34:11.329Z,33.30
2023-08-14T12:35:14.332Z,33.31
2023-08-14T12:36:17.331Z,33.34
2023-08-14T12:37:20.455Z,33.39
2023-08-14T12:38:23.625Z,33.39
2023-08-14T12:39:26.506Z,33.40
2023-08-14T12:40:30.174Z,33.39
2023-08-14T12:41:33.552Z,33.39
2023-08-14T12:42:37.007Z,33.29
2023-08-14T12:43:41.066Z,33.23
2023-08-14T12:44:44.182Z,33.19
2023-08-14T12:45:47.133Z,33.13
2023-08-14T12:46:50.131Z,33.06
2023-08-14T12:47:53.124Z,33.02
2023-08-14T12:48:56.004Z,33.02
2023-08-14T12:49:58.877Z,33.06
2023-08-14T12:51:03.655Z,33.09
2023-08-14T12:52:10.169Z,33.07
2023-08-14T12:53:18.788Z,33.12
2023-08-14T12:54:23.213Z,33.09
2023-08-14T12:55:26.189Z,33.09
2023-08-14T12:56:29.332Z,33.06
2023-08-14T12:57:32.402Z,33.07
2023-08-14T12:58:35.377Z,33.09
2023-08-14T12:59:38.274Z,33.05
2023-08-14T13:00:41.989Z,33.06
2023-08-14T13:01:47.820Z,33.05
2023-08-14T13:02:51.366Z,33.06
2023-08-14T13:03:58.706Z,33.13
2023-08-14T13:05:02.782Z,33.13
2023-08-14T13:06:06.291Z,33.19
2023-08-14T13:07:09.304Z,33.19
2023-08-14T13:08:12.307Z,33.19
2023-08-14T13:09:15.271Z,33.20
2023-08-14T13:10:18.228Z,33.22
2023-08-14T13:11:21.207Z,33.23
2023-08-14T13:12:24.107Z,33.22
2023-08-14T13:13:29.293Z,33.20
2023-08-14T13:14:32.219Z,33.17
2023-08-14T13:15:35.101Z,33.20
2023-08-14T13:16:38.104Z,33.22
2023-08-14T13:17:41.075Z,33.23
2023-08-14T13:18:44.300Z,33.22
2023-08-14T13:19:47.169Z,33.15
2023-08-14T13:20:50.048Z,33.16
2023-08-14T13:21:52.904Z,33.13
2023-08-14T13:22:55.753Z,33.10
2023-08-14T13:23:58.695Z,33.06
2023-08-14T13:25:01.778Z,33.07
2023-08-14T13:26:04.781Z,33.13
2023-08-14T13:27:09.423Z,33.12
2023-08-14T13:28:14.141Z,33.12
2023-08-14T13:29:17.124Z,33.02
2023-08-14T13:30:20.721Z,33.06
2023-08-14T13:31:24.028Z,33.03
2023-08-14T13:32:27.025Z,32.98
2023-08-14T13:33:29.884Z,33.00
2023-08-14T13:34:32.786Z,33.02
2023-08-14T13:35:35.957Z,33.02
2023-08-14T13:36:38.815Z,33.03
2023-08-14T13:37:41.702Z,33.02
2023-08-14T13:38:44.552Z,32.99
2023-08-14T13:39:47.906Z,32.95
2023-08-14T13:40:50.747Z,32.85
2023-08-14T13:41:53.578Z,32.89
2023-08-14T13:42:56.453Z,32.82
2023-08-14T13:43:59.411Z,32.80
2023-08-14T13:45:12.362Z,32.82
2023-08-14T13:46:19.788Z,32.82
2023-08-14T13:47:22.968Z,32.76
2023-08-14T13:48:26.120Z,32.78
2023-08-14T13:49:29.036Z,32.76
2023-08-14T13:50:34.518Z,32.76
2023-08-14T13:51:37.577Z,32.78
2023-08-14T13:52:42.289Z,32.75
2023-08-14T13:53:45.652Z,32.79
2023-08-14T13:54:51.576Z,32.82
2023-08-14T13:55:54.424Z,32.85
2023-08-14T13:56:57.445Z,32.80